sensor_id;sensor_type;location;lat;lon;timestamp;temperature;humidity
23102;DHT22;11720;51.214;22.574;2023-04-24T00:00:04;9.70;99.90
23102;DHT22;11720;51.214;22.574;2023-04-24T00:02:41;9.70;99.90
23102;DHT22;11720;51.214;22.574;2023-04-24T00:05:07;9.70;99.90
23102;DHT22;11720;51.214;22.574;2023-04-24T00:07:34;9.70;99.90
23102;DHT22;11720;51.214;22.574;2023-04-24T00:09:59;9.70;99.90
23102;DHT22;11720;51.214;22.574;2023-04-24T00:12:26;9.70;99.90
23102;DHT22;11720;51.214;22.574;2023-04-24T00:14:54;9.70;99.90
23102;DHT22;11720;51.214;22.574;2023-04-24T00:17:20;9.70;99.90
23102;DHT22;11720;51.214;22.574;2023-04-24T00:19:47;9.70;99.90
23102;DHT22;11720;51.214;22.574;2023-04-24T00:22:14;9.70;99.90
23102;DHT22;11720;51.214;22.574;2023-04-24T00:24:40;9.70;99.90
23102;DHT22;11720;51.214;22.574;2023-04-24T00:27:06;9.70;99.90
23102;DHT22;11720;51.214;22.574;2023-04-24T00:29:32;9.70;99.90
23102;DHT22;11720;51.214;22.574;2023-04-24T00:31:57;9.70;99.90
23102;DHT22;11720;51.214;22.574;2023-04-24T00:34:23;9.70;99.90
23102;DHT22;11720;51.214;22.574;2023-04-24T00:36:49;9.70;99.90
23102;DHT22;11720;51.214;22.574;2023-04-24T00:39:18;9.70;99.90
23102;DHT22;11720;51.214;22.574;2023-04-24T00:41:44;9.70;99.90
23102;DHT22;11720;51.214;22.574;2023-04-24T00:44:11;9.70;99.90
23102;DHT22;11720;51.214;22.574;2023-04-24T00:46:36;9.70;99.90
23102;DHT22;11720;51.214;22.574;2023-04-24T00:49:02;9.70;99.90
23102;DHT22;11720;51.214;22.574;2023-04-24T00:51:29;9.60;99.90
23102;DHT22;11720;51.214;22.574;2023-04-24T00:53:56;9.70;99.90
23102;DHT22;11720;51.214;22.574;2023-04-24T00:56:21;9.70;99.90
23102;DHT22;11720;51.214;22.574;2023-04-24T00:58:49;9.60;99.90
23102;DHT22;11720;51.214;22.574;2023-04-24T01:01:14;9.70;99.90
23102;DHT22;11720;51.214;22.574;2023-04-24T01:03:40;9.70;99.90
23102;DHT22;11720;51.214;22.574;2023-04-24T01:06:06;9.70;99.90
23102;DHT22;11720;51.214;22.574;2023-04-24T01:08:32;9.60;99.90
23102;DHT22;11720;51.214;22.574;2023-04-24T01:11:03;9.70;99.90
23102;DHT22;11720;51.214;22.574;2023-04-24T01:13:29;9.60;99.90
23102;DHT22;11720;51.214;22.574;2023-04-24T01:15:54;9.60;99.90
23102;DHT22;11720;51.214;22.574;2023-04-24T01:18:20;9.60;99.90
23102;DHT22;11720;51.214;22.574;2023-04-24T01:20:50;9.60;99.90
23102;DHT22;11720;51.214;22.574;2023-04-24T01:23:17;9.60;99.90
23102;DHT22;11720;51.214;22.574;2023-04-24T01:25:43;9.60;99.90
23102;DHT22;11720;51.214;22.574;2023-04-24T01:28:09;9.90;99.90
23102;DHT22;11720;51.214;22.574;2023-04-24T01:30:35;9.80;99.90
23102;DHT22;11720;51.214;22.574;2023-04-24T01:33:01;9.60;99.90
23102;DHT22;11720;51.214;22.574;2023-04-24T01:35:28;9.60;99.90
23102;DHT22;11720;51.214;22.574;2023-04-24T01:37:54;9.60;99.90
23102;DHT22;11720;51.214;22.574;2023-04-24T01:40:19;9.60;99.90
23102;DHT22;11720;51.214;22.574;2023-04-24T01:42:45;9.60;99.90
23102;DHT22;11720;51.214;22.574;2023-04-24T01:45:12;9.60;99.90
23102;DHT22;11720;51.214;22.574;2023-04-24T01:47:38;9.70;99.90
23102;DHT22;11720;51.214;22.574;2023-04-24T01:50:05;9.50;99.90
23102;DHT22;11720;51.214;22.574;2023-04-24T01:52:30;9.40;99.90
23102;DHT22;11720;51.214;22.574;2023-04-24T01:55:02;9.40;99.90
23102;DHT22;11720;51.214;22.574;2023-04-24T01:57:30;9.30;99.90
23102;DHT22;11720;51.214;22.574;2023-04-24T01:59:56;9.20;99.90
23102;DHT22;11720;51.214;22.574;2023-04-24T02:02:22;9.20;99.90
23102;DHT22;11720;51.214;22.574;2023-04-24T02:04:50;9.20;99.90
23102;DHT22;11720;51.214;22.574;2023-04-24T02:07:16;9.20;99.90
23102;DHT22;11720;51.214;22.574;2023-04-24T02:12:07;9.10;99.90
23102;DHT22;11720;51.214;22.574;2023-04-24T02:14:33;9.00;99.90
23102;DHT22;11720;51.214;22.574;2023-04-24T02:16:59;9.00;99.90
23102;DHT22;11720;51.214;22.574;2023-04-24T02:19:26;9.00;99.90
23102;DHT22;11720;51.214;22.574;2023-04-24T02:21:52;9.00;99.90
23102;DHT22;11720;51.214;22.574;2023-04-24T02:24:17;8.90;99.90
23102;DHT22;11720;51.214;22.574;2023-04-24T02:26:43;8.90;99.90
23102;DHT22;11720;51.214;22.574;2023-04-24T02:29:10;8.90;99.90
23102;DHT22;11720;51.214;22.574;2023-04-24T02:31:36;8.80;99.90
23102;DHT22;11720;51.214;22.574;2023-04-24T02:34:01;8.80;99.90
23102;DHT22;11720;51.214;22.574;2023-04-24T02:36:27;8.80;99.90
23102;DHT22;11720;51.214;22.574;2023-04-24T02:38:53;8.70;99.90
23102;DHT22;11720;51.214;22.574;2023-04-24T02:41:18;8.70;99.90
23102;DHT22;11720;51.214;22.574;2023-04-24T02:43:45;8.60;99.90
23102;DHT22;11720;51.214;22.574;2023-04-24T02:48:37;8.60;99.90
23102;DHT22;11720;51.214;22.574;2023-04-24T02:51:03;8.50;99.90
23102;DHT22;11720;51.214;22.574;2023-04-24T02:53:28;8.40;99.90
23102;DHT22;11720;51.214;22.574;2023-04-24T02:55:56;8.40;99.90
23102;DHT22;11720;51.214;22.574;2023-04-24T03:00:48;8.40;99.90
23102;DHT22;11720;51.214;22.574;2023-04-24T03:03:14;8.90;99.90
23102;DHT22;11720;51.214;22.574;2023-04-24T03:05:41;8.30;99.90
23102;DHT22;11720;51.214;22.574;2023-04-24T03:12:59;8.20;99.90
23102;DHT22;11720;51.214;22.574;2023-04-24T03:17:50;8.30;99.90
23102;DHT22;11720;51.214;22.574;2023-04-24T03:20:16;8.30;99.90
23102;DHT22;11720;51.214;22.574;2023-04-24T03:25:08;8.30;99.90
23102;DHT22;11720;51.214;22.574;2023-04-24T03:27:34;8.30;99.90
23102;DHT22;11720;51.214;22.574;2023-04-24T03:30:00;8.30;99.90
23102;DHT22;11720;51.214;22.574;2023-04-24T03:32:26;8.30;99.90
23102;DHT22;11720;51.214;22.574;2023-04-24T03:34:52;8.30;99.90
23102;DHT22;11720;51.214;22.574;2023-04-24T03:37:17;8.40;99.90
23102;DHT22;11720;51.214;22.574;2023-04-24T03:39:43;8.40;99.90
23102;DHT22;11720;51.214;22.574;2023-04-24T03:42:09;8.40;99.90
23102;DHT22;11720;51.214;22.574;2023-04-24T03:44:35;8.50;99.90
23102;DHT22;11720;51.214;22.574;2023-04-24T03:47:01;8.50;99.90
23102;DHT22;11720;51.214;22.574;2023-04-24T03:49:27;8.50;99.90
23102;DHT22;11720;51.214;22.574;2023-04-24T03:51:52;8.60;99.90
23102;DHT22;11720;51.214;22.574;2023-04-24T03:54:19;8.60;99.90
23102;DHT22;11720;51.214;22.574;2023-04-24T03:56:45;8.60;99.90
23102;DHT22;11720;51.214;22.574;2023-04-24T03:59:11;8.70;99.90
23102;DHT22;11720;51.214;22.574;2023-04-24T04:01:36;8.70;99.90
23102;DHT22;11720;51.214;22.574;2023-04-24T04:04:06;8.70;99.90
23102;DHT22;11720;51.214;22.574;2023-04-24T04:06:32;8.80;99.90
23102;DHT22;11720;51.214;22.574;2023-04-24T04:08:58;8.80;99.90
23102;DHT22;11720;51.214;22.574;2023-04-24T04:11:24;8.90;99.90
23102;DHT22;11720;51.214;22.574;2023-04-24T04:13:50;8.90;99.90
23102;DHT22;11720;51.214;22.574;2023-04-24T04:16:16;9.00;99.90
23102;DHT22;11720;51.214;22.574;2023-04-24T04:18:44;9.10;99.90
23102;DHT22;11720;51.214;22.574;2023-04-24T04:21:11;9.10;99.90
23102;DHT22;11720;51.214;22.574;2023-04-24T04:23:36;9.20;99.90
23102;DHT22;11720;51.214;22.574;2023-04-24T04:26:03;9.20;99.90
23102;DHT22;11720;51.214;22.574;2023-04-24T04:28:29;9.30;99.90
23102;DHT22;11720;51.214;22.574;2023-04-24T04:30:57;9.30;99.90
23102;DHT22;11720;51.214;22.574;2023-04-24T04:33:23;9.40;99.90
23102;DHT22;11720;51.214;22.574;2023-04-24T04:35:50;9.50;99.90
23102;DHT22;11720;51.214;22.574;2023-04-24T04:38:17;9.50;99.90
23102;DHT22;11720;51.214;22.574;2023-04-24T04:40:43;9.60;99.90
23102;DHT22;11720;51.214;22.574;2023-04-24T04:43:09;9.60;99.90
23102;DHT22;11720;51.214;22.574;2023-04-24T04:45:36;9.70;99.90
23102;DHT22;11720;51.214;22.574;2023-04-24T04:48:04;9.80;99.90
23102;DHT22;11720;51.214;22.574;2023-04-24T04:50:30;9.90;99.90
23102;DHT22;11720;51.214;22.574;2023-04-24T04:52:55;10.00;99.90
23102;DHT22;11720;51.214;22.574;2023-04-24T04:55:21;10.10;99.90
23102;DHT22;11720;51.214;22.574;2023-04-24T04:57:47;10.30;99.90
23102;DHT22;11720;51.214;22.574;2023-04-24T05:00:13;10.40;99.90
23102;DHT22;11720;51.214;22.574;2023-04-24T05:02:39;10.60;99.90
23102;DHT22;11720;51.214;22.574;2023-04-24T05:05:06;10.80;99.90
23102;DHT22;11720;51.214;22.574;2023-04-24T05:07:33;10.90;99.90
23102;DHT22;11720;51.214;22.574;2023-04-24T05:09:59;11.00;99.90
23102;DHT22;11720;51.214;22.574;2023-04-24T05:12:25;11.20;99.90
23102;DHT22;11720;51.214;22.574;2023-04-24T05:14:51;11.30;99.90
23102;DHT22;11720;51.214;22.574;2023-04-24T05:17:17;11.30;99.90
23102;DHT22;11720;51.214;22.574;2023-04-24T05:19:43;11.50;99.90
23102;DHT22;11720;51.214;22.574;2023-04-24T05:22:10;11.60;99.90
23102;DHT22;11720;51.214;22.574;2023-04-24T05:24:37;11.80;99.90
23102;DHT22;11720;51.214;22.574;2023-04-24T05:27:03;12.00;99.90
23102;DHT22;11720;51.214;22.574;2023-04-24T05:29:30;12.60;99.90
23102;DHT22;11720;51.214;22.574;2023-04-24T05:31:59;12.20;99.90
23102;DHT22;11720;51.214;22.574;2023-04-24T05:34:26;12.30;99.90
23102;DHT22;11720;51.214;22.574;2023-04-24T05:36:52;12.40;99.90
23102;DHT22;11720;51.214;22.574;2023-04-24T05:39:18;12.60;99.90
23102;DHT22;11720;51.214;22.574;2023-04-24T05:41:45;12.60;99.90
23102;DHT22;11720;51.214;22.574;2023-04-24T05:44:10;12.70;99.90
23102;DHT22;11720;51.214;22.574;2023-04-24T05:46:36;12.70;99.90
23102;DHT22;11720;51.214;22.574;2023-04-24T05:49:02;12.60;99.90
23102;DHT22;11720;51.214;22.574;2023-04-24T05:51:28;12.60;99.90
23102;DHT22;11720;51.214;22.574;2023-04-24T05:53:54;12.50;99.90
23102;DHT22;11720;51.214;22.574;2023-04-24T05:56:20;12.50;99.90
23102;DHT22;11720;51.214;22.574;2023-04-24T05:58:46;12.50;99.90
23102;DHT22;11720;51.214;22.574;2023-04-24T06:01:12;12.60;99.90
23102;DHT22;11720;51.214;22.574;2023-04-24T06:03:40;12.80;99.90
23102;DHT22;11720;51.214;22.574;2023-04-24T06:06:06;12.90;99.90
23102;DHT22;11720;51.214;22.574;2023-04-24T06:08:32;13.20;99.90
23102;DHT22;11720;51.214;22.574;2023-04-24T06:10:58;13.30;99.90
23102;DHT22;11720;51.214;22.574;2023-04-24T06:13:24;13.50;99.90
23102;DHT22;11720;51.214;22.574;2023-04-24T06:15:50;13.70;99.80
23102;DHT22;11720;51.214;22.574;2023-04-24T06:18:15;13.80;99.90
23102;DHT22;11720;51.214;22.574;2023-04-24T06:20:41;13.90;97.50
23102;DHT22;11720;51.214;22.574;2023-04-24T06:23:07;14.10;97.80
23102;DHT22;11720;51.214;22.574;2023-04-24T06:25:32;14.20;97.10
23102;DHT22;11720;51.214;22.574;2023-04-24T06:27:58;14.40;96.20
23102;DHT22;11720;51.214;22.574;2023-04-24T06:30:24;14.50;94.20
23102;DHT22;11720;51.214;22.574;2023-04-24T06:32:50;14.60;93.60
23102;DHT22;11720;51.214;22.574;2023-04-24T06:35:16;14.70;93.30
23102;DHT22;11720;51.214;22.574;2023-04-24T06:37:42;14.80;93.50
23102;DHT22;11720;51.214;22.574;2023-04-24T06:40:09;14.90;92.60
23102;DHT22;11720;51.214;22.574;2023-04-24T06:42:36;17.70;93.80
23102;DHT22;11720;51.214;22.574;2023-04-24T06:45:01;15.10;92.70
23102;DHT22;11720;51.214;22.574;2023-04-24T06:47:27;15.20;92.10
23102;DHT22;11720;51.214;22.574;2023-04-24T06:49:53;15.30;92.10
23102;DHT22;11720;51.214;22.574;2023-04-24T06:52:19;15.40;91.00
23102;DHT22;11720;51.214;22.574;2023-04-24T06:54:45;15.50;91.30
23102;DHT22;11720;51.214;22.574;2023-04-24T06:57:12;15.60;90.60
23102;DHT22;11720;51.214;22.574;2023-04-24T06:59:38;15.70;89.40
23102;DHT22;11720;51.214;22.574;2023-04-24T07:02:04;15.70;86.80
23102;DHT22;11720;51.214;22.574;2023-04-24T07:04:30;15.80;87.80
23102;DHT22;11720;51.214;22.574;2023-04-24T07:06:56;15.80;85.70
23102;DHT22;11720;51.214;22.574;2023-04-24T07:09:24;16.00;86.30
23102;DHT22;11720;51.214;22.574;2023-04-24T07:11:51;16.10;86.30
23102;DHT22;11720;51.214;22.574;2023-04-24T07:14:17;16.10;85.50
23102;DHT22;11720;51.214;22.574;2023-04-24T07:16:43;16.30;85.30
23102;DHT22;11720;51.214;22.574;2023-04-24T07:19:09;16.40;88.40
23102;DHT22;11720;51.214;22.574;2023-04-24T07:21:35;16.70;86.20
23102;DHT22;11720;51.214;22.574;2023-04-24T07:24:01;16.60;84.30
23102;DHT22;11720;51.214;22.574;2023-04-24T07:26:29;16.60;82.90
23102;DHT22;11720;51.214;22.574;2023-04-24T07:28:55;16.70;80.50
23102;DHT22;11720;51.214;22.574;2023-04-24T07:31:20;16.60;81.50
23102;DHT22;11720;51.214;22.574;2023-04-24T07:33:47;16.80;82.10
23102;DHT22;11720;51.214;22.574;2023-04-24T07:36:13;16.90;80.80
23102;DHT22;11720;51.214;22.574;2023-04-24T07:38:42;17.10;80.80
23102;DHT22;11720;51.214;22.574;2023-04-24T07:41:08;17.20;78.50
23102;DHT22;11720;51.214;22.574;2023-04-24T07:43:34;17.20;80.60
23102;DHT22;11720;51.214;22.574;2023-04-24T07:46:00;17.10;79.00
23102;DHT22;11720;51.214;22.574;2023-04-24T07:48:26;17.20;80.70
23102;DHT22;11720;51.214;22.574;2023-04-24T07:50:52;17.30;80.80
23102;DHT22;11720;51.214;22.574;2023-04-24T07:53:18;17.40;78.70
23102;DHT22;11720;51.214;22.574;2023-04-24T07:55:44;17.50;77.30
23102;DHT22;11720;51.214;22.574;2023-04-24T07:58:09;17.60;77.20
23102;DHT22;11720;51.214;22.574;2023-04-24T08:00:35;17.50;76.40
23102;DHT22;11720;51.214;22.574;2023-04-24T08:03:01;17.60;76.30
23102;DHT22;11720;51.214;22.574;2023-04-24T08:05:27;17.50;74.50
23102;DHT22;11720;51.214;22.574;2023-04-24T08:07:54;17.50;75.40
23102;DHT22;11720;51.214;22.574;2023-04-24T08:10:23;17.60;77.40
23102;DHT22;11720;51.214;22.574;2023-04-24T08:12:49;17.60;77.30
23102;DHT22;11720;51.214;22.574;2023-04-24T08:15:15;17.60;77.60
23102;DHT22;11720;51.214;22.574;2023-04-24T08:17:41;17.70;76.30
23102;DHT22;11720;51.214;22.574;2023-04-24T08:20:08;17.90;79.00
23102;DHT22;11720;51.214;22.574;2023-04-24T08:22:39;18.10;76.20
23102;DHT22;11720;51.214;22.574;2023-04-24T08:25:06;18.00;72.30
23102;DHT22;11720;51.214;22.574;2023-04-24T08:27:32;18.10;75.00
23102;DHT22;11720;51.214;22.574;2023-04-24T08:29:58;18.30;75.80
23102;DHT22;11720;51.214;22.574;2023-04-24T08:32:26;18.40;75.70
23102;DHT22;11720;51.214;22.574;2023-04-24T08:34:56;18.60;74.30
23102;DHT22;11720;51.214;22.574;2023-04-24T08:37:22;18.60;71.30
23102;DHT22;11720;51.214;22.574;2023-04-24T08:39:49;18.50;73.80
23102;DHT22;11720;51.214;22.574;2023-04-24T08:42:16;18.60;71.90
23102;DHT22;11720;51.214;22.574;2023-04-24T08:44:43;18.70;72.50
23102;DHT22;11720;51.214;22.574;2023-04-24T08:47:10;18.80;72.30
23102;DHT22;11720;51.214;22.574;2023-04-24T08:49:37;18.80;70.40
23102;DHT22;11720;51.214;22.574;2023-04-24T08:52:03;18.70;70.80
23102;DHT22;11720;51.214;22.574;2023-04-24T08:54:29;18.90;73.70
23102;DHT22;11720;51.214;22.574;2023-04-24T08:56:58;19.20;71.30
23102;DHT22;11720;51.214;22.574;2023-04-24T08:59:28;19.20;67.80
23102;DHT22;11720;51.214;22.574;2023-04-24T09:01:55;19.30;68.10
23102;DHT22;11720;51.214;22.574;2023-04-24T09:04:22;19.40;64.50
23102;DHT22;11720;51.214;22.574;2023-04-24T09:06:57;19.30;64.20
23102;DHT22;11720;51.214;22.574;2023-04-24T09:09:23;19.30;65.50
23102;DHT22;11720;51.214;22.574;2023-04-24T09:11:51;19.50;67.10
23102;DHT22;11720;51.214;22.574;2023-04-24T09:14:19;19.70;64.10
23102;DHT22;11720;51.214;22.574;2023-04-24T09:16:45;20.00;65.30
23102;DHT22;11720;51.214;22.574;2023-04-24T09:19:12;20.00;62.00
23102;DHT22;11720;51.214;22.574;2023-04-24T09:21:37;20.10;64.10
23102;DHT22;11720;51.214;22.574;2023-04-24T09:24:05;20.30;64.50
23102;DHT22;11720;51.214;22.574;2023-04-24T09:26:36;20.40;63.90
23102;DHT22;11720;51.214;22.574;2023-04-24T09:29:03;20.40;62.60
23102;DHT22;11720;51.214;22.574;2023-04-24T09:31:30;20.40;62.60
23102;DHT22;11720;51.214;22.574;2023-04-24T09:36:40;20.60;61.00
23102;DHT22;11720;51.214;22.574;2023-04-24T09:39:09;20.60;59.90
23102;DHT22;11720;51.214;22.574;2023-04-24T09:41:50;20.70;62.30
23102;DHT22;11720;51.214;22.574;2023-04-24T09:44:21;20.90;63.00
23102;DHT22;11720;51.214;22.574;2023-04-24T09:46:55;21.00;59.00
23102;DHT22;11720;51.214;22.574;2023-04-24T09:49:25;21.00;60.00
23102;DHT22;11720;51.214;22.574;2023-04-24T09:51:51;21.20;59.90
23102;DHT22;11720;51.214;22.574;2023-04-24T09:54:19;21.40;60.50
23102;DHT22;11720;51.214;22.574;2023-04-24T09:56:47;21.60;59.90
23102;DHT22;11720;51.214;22.574;2023-04-24T09:59:15;21.60;59.50
23102;DHT22;11720;51.214;22.574;2023-04-24T10:01:41;21.70;59.50
23102;DHT22;11720;51.214;22.574;2023-04-24T10:06:44;21.60;56.10
23102;DHT22;11720;51.214;22.574;2023-04-24T10:09:10;21.30;58.30
23102;DHT22;11720;51.214;22.574;2023-04-24T10:11:37;21.50;58.10
23102;DHT22;11720;51.214;22.574;2023-04-24T10:14:06;21.60;56.90
23102;DHT22;11720;51.214;22.574;2023-04-24T10:16:34;21.70;56.20
23102;DHT22;11720;51.214;22.574;2023-04-24T10:19:00;21.90;55.60
23102;DHT22;11720;51.214;22.574;2023-04-24T10:21:27;21.80;54.60
23102;DHT22;11720;51.214;22.574;2023-04-24T10:23:53;21.70;53.70
23102;DHT22;11720;51.214;22.574;2023-04-24T10:26:19;22.00;54.90
23102;DHT22;11720;51.214;22.574;2023-04-24T10:28:46;22.10;53.90
23102;DHT22;11720;51.214;22.574;2023-04-24T10:31:13;22.30;55.60
23102;DHT22;11720;51.214;22.574;2023-04-24T10:33:41;22.50;54.30
23102;DHT22;11720;51.214;22.574;2023-04-24T10:36:09;22.60;55.00
23102;DHT22;11720;51.214;22.574;2023-04-24T10:38:35;22.50;51.90
23102;DHT22;11720;51.214;22.574;2023-04-24T10:41:10;22.60;53.50
23102;DHT22;11720;51.214;22.574;2023-04-24T10:43:40;22.60;52.80
23102;DHT22;11720;51.214;22.574;2023-04-24T10:46:06;22.70;52.30
23102;DHT22;11720;51.214;22.574;2023-04-24T10:48:33;22.70;52.60
23102;DHT22;11720;51.214;22.574;2023-04-24T10:50:59;22.80;51.30
23102;DHT22;11720;51.214;22.574;2023-04-24T10:53:28;22.30;52.70
23102;DHT22;11720;51.214;22.574;2023-04-24T10:56:03;21.90;49.30
23102;DHT22;11720;51.214;22.574;2023-04-24T10:58:43;21.80;51.20
23102;DHT22;11720;51.214;22.574;2023-04-24T11:01:30;22.30;52.10
23102;DHT22;11720;51.214;22.574;2023-04-24T11:04:02;22.80;50.30
23102;DHT22;11720;51.214;22.574;2023-04-24T11:06:36;23.10;50.10
23102;DHT22;11720;51.214;22.574;2023-04-24T11:09:11;23.00;49.30
23102;DHT22;11720;51.214;22.574;2023-04-24T11:11:45;22.90;49.90
23102;DHT22;11720;51.214;22.574;2023-04-24T11:14:14;22.90;49.40
23102;DHT22;11720;51.214;22.574;2023-04-24T11:17:07;23.10;48.60
23102;DHT22;11720;51.214;22.574;2023-04-24T11:19:35;23.20;49.50
23102;DHT22;11720;51.214;22.574;2023-04-24T11:22:03;23.40;48.10
23102;DHT22;11720;51.214;22.574;2023-04-24T11:29:59;23.70;48.80
23102;DHT22;11720;51.214;22.574;2023-04-24T11:37:44;23.60;45.00
23102;DHT22;11720;51.214;22.574;2023-04-24T11:40:15;23.20;45.80
23102;DHT22;11720;51.214;22.574;2023-04-24T11:42:45;23.00;45.30
23102;DHT22;11720;51.214;22.574;2023-04-24T11:45:12;23.20;47.60
23102;DHT22;11720;51.214;22.574;2023-04-24T11:47:38;23.50;46.30
23102;DHT22;11720;51.214;22.574;2023-04-24T11:50:10;23.50;44.40
23102;DHT22;11720;51.214;22.574;2023-04-24T11:52:41;23.20;45.10
23102;DHT22;11720;51.214;22.574;2023-04-24T11:55:09;23.50;46.00
23102;DHT22;11720;51.214;22.574;2023-04-24T11:57:37;23.90;44.80
23102;DHT22;11720;51.214;22.574;2023-04-24T12:00:04;24.20;43.90
23102;DHT22;11720;51.214;22.574;2023-04-24T12:02:30;24.10;41.80
23102;DHT22;11720;51.214;22.574;2023-04-24T12:04:56;23.90;44.40
23102;DHT22;11720;51.214;22.574;2023-04-24T12:07:23;23.70;46.70
23102;DHT22;11720;51.214;22.574;2023-04-24T12:10:00;23.60;44.70
23102;DHT22;11720;51.214;22.574;2023-04-24T12:12:26;23.40;42.60
23102;DHT22;11720;51.214;22.574;2023-04-24T12:14:57;23.20;43.10
23102;DHT22;11720;51.214;22.574;2023-04-24T12:17:28;23.20;45.50
23102;DHT22;11720;51.214;22.574;2023-04-24T12:20:04;22.90;44.70
23102;DHT22;11720;51.214;22.574;2023-04-24T12:22:48;22.80;45.90
23102;DHT22;11720;51.214;22.574;2023-04-24T12:25:17;22.90;45.90
23102;DHT22;11720;51.214;22.574;2023-04-24T12:27:44;22.90;44.40
23102;DHT22;11720;51.214;22.574;2023-04-24T12:30:13;23.10;45.70
23102;DHT22;11720;51.214;22.574;2023-04-24T12:32:49;23.50;45.40
23102;DHT22;11720;51.214;22.574;2023-04-24T12:35:22;23.50;43.40
23102;DHT22;11720;51.214;22.574;2023-04-24T12:37:48;23.60;44.70
23102;DHT22;11720;51.214;22.574;2023-04-24T12:40:17;23.40;44.30
23102;DHT22;11720;51.214;22.574;2023-04-24T12:42:45;23.50;44.20
23102;DHT22;11720;51.214;22.574;2023-04-24T12:45:12;24.00;46.10
23102;DHT22;11720;51.214;22.574;2023-04-24T12:47:38;24.20;43.10
23102;DHT22;11720;51.214;22.574;2023-04-24T12:50:05;24.30;44.60
23102;DHT22;11720;51.214;22.574;2023-04-24T12:52:31;24.70;44.90
23102;DHT22;11720;51.214;22.574;2023-04-24T12:54:59;24.60;43.10
23102;DHT22;11720;51.214;22.574;2023-04-24T12:57:26;24.70;42.30
23102;DHT22;11720;51.214;22.574;2023-04-24T12:59:56;24.70;41.30
23102;DHT22;11720;51.214;22.574;2023-04-24T13:02:23;24.60;44.30
23102;DHT22;11720;51.214;22.574;2023-04-24T13:04:49;24.70;42.50
23102;DHT22;11720;51.214;22.574;2023-04-24T13:07:16;24.70;43.00
23102;DHT22;11720;51.214;22.574;2023-04-24T13:09:43;25.00;41.70
23102;DHT22;11720;51.214;22.574;2023-04-24T13:12:09;25.20;42.00
23102;DHT22;11720;51.214;22.574;2023-04-24T13:14:35;25.30;42.50
23102;DHT22;11720;51.214;22.574;2023-04-24T13:17:02;25.40;40.00
23102;DHT22;11720;51.214;22.574;2023-04-24T13:19:28;25.40;40.60
23102;DHT22;11720;51.214;22.574;2023-04-24T13:21:55;25.40;41.00
23102;DHT22;11720;51.214;22.574;2023-04-24T13:24:24;25.70;43.20
23102;DHT22;11720;51.214;22.574;2023-04-24T13:26:54;25.70;42.10
23102;DHT22;11720;51.214;22.574;2023-04-24T13:29:22;25.60;42.80
23102;DHT22;11720;51.214;22.574;2023-04-24T13:31:50;25.80;44.20
23102;DHT22;11720;51.214;22.574;2023-04-24T13:34:17;25.80;44.90
23102;DHT22;11720;51.214;22.574;2023-04-24T13:36:43;25.80;44.10
23102;DHT22;11720;51.214;22.574;2023-04-24T13:39:09;25.70;43.10
23102;DHT22;11720;51.214;22.574;2023-04-24T13:41:36;25.60;44.30
23102;DHT22;11720;51.214;22.574;2023-04-24T13:44:02;25.60;44.50
23102;DHT22;11720;51.214;22.574;2023-04-24T13:46:28;25.40;43.10
23102;DHT22;11720;51.214;22.574;2023-04-24T13:48:54;24.90;42.80
23102;DHT22;11720;51.214;22.574;2023-04-24T13:51:20;24.50;45.00
23102;DHT22;11720;51.214;22.574;2023-04-24T13:53:46;24.50;45.80
23102;DHT22;11720;51.214;22.574;2023-04-24T13:56:11;25.00;46.30
23102;DHT22;11720;51.214;22.574;2023-04-24T13:58:39;25.30;45.00
23102;DHT22;11720;51.214;22.574;2023-04-24T14:01:05;25.30;44.40
23102;DHT22;11720;51.214;22.574;2023-04-24T14:03:30;25.50;44.30
23102;DHT22;11720;51.214;22.574;2023-04-24T14:05:56;25.20;44.50
23102;DHT22;11720;51.214;22.574;2023-04-24T14:08:22;24.70;45.20
23102;DHT22;11720;51.214;22.574;2023-04-24T14:10:49;24.20;45.60
23102;DHT22;11720;51.214;22.574;2023-04-24T14:13:16;23.70;46.70
23102;DHT22;11720;51.214;22.574;2023-04-24T14:15:42;23.30;47.50
23102;DHT22;11720;51.214;22.574;2023-04-24T14:18:07;22.90;47.70
23102;DHT22;11720;51.214;22.574;2023-04-24T14:20:33;22.50;47.10
23102;DHT22;11720;51.214;22.574;2023-04-24T14:22:59;22.40;47.60
23102;DHT22;11720;51.214;22.574;2023-04-24T14:25:25;22.90;46.20
23102;DHT22;11720;51.214;22.574;2023-04-24T14:27:51;23.20;44.80
23102;DHT22;11720;51.214;22.574;2023-04-24T14:30:17;23.20;44.80
23102;DHT22;11720;51.214;22.574;2023-04-24T14:32:43;23.10;45.30
23102;DHT22;11720;51.214;22.574;2023-04-24T14:35:09;23.20;46.50
23102;DHT22;11720;51.214;22.574;2023-04-24T14:37:34;23.30;45.90
23102;DHT22;11720;51.214;22.574;2023-04-24T14:40:01;23.20;46.00
23102;DHT22;11720;51.214;22.574;2023-04-24T14:42:30;23.10;45.10
23102;DHT22;11720;51.214;22.574;2023-04-24T14:44:56;23.10;47.30
23102;DHT22;11720;51.214;22.574;2023-04-24T14:47:22;23.20;47.30
23102;DHT22;11720;51.214;22.574;2023-04-24T14:49:48;23.30;47.10
23102;DHT22;11720;51.214;22.574;2023-04-24T14:52:14;23.40;46.20
23102;DHT22;11720;51.214;22.574;2023-04-24T14:54:41;23.50;46.50
23102;DHT22;11720;51.214;22.574;2023-04-24T14:57:08;23.40;47.20
23102;DHT22;11720;51.214;22.574;2023-04-24T14:59:34;23.50;48.00
23102;DHT22;11720;51.214;22.574;2023-04-24T15:02:00;23.40;47.00
23102;DHT22;11720;51.214;22.574;2023-04-24T15:04:27;23.20;47.50
23102;DHT22;11720;51.214;22.574;2023-04-24T15:06:54;23.20;47.20
23102;DHT22;11720;51.214;22.574;2023-04-24T15:09:21;23.30;46.80
23102;DHT22;11720;51.214;22.574;2023-04-24T15:11:47;23.30;47.20
23102;DHT22;11720;51.214;22.574;2023-04-24T15:14:13;23.10;46.50
23102;DHT22;11720;51.214;22.574;2023-04-24T15:16:40;23.20;47.10
23102;DHT22;11720;51.214;22.574;2023-04-24T15:19:06;23.00;47.10
23102;DHT22;11720;51.214;22.574;2023-04-24T15:21:32;22.90;47.30
23102;DHT22;11720;51.214;22.574;2023-04-24T15:23:58;22.80;51.80
23102;DHT22;11720;51.214;22.574;2023-04-24T15:26:24;22.50;48.90
23102;DHT22;11720;51.214;22.574;2023-04-24T15:28:52;22.20;49.90
23102;DHT22;11720;51.214;22.574;2023-04-24T15:31:18;21.90;48.00
23102;DHT22;11720;51.214;22.574;2023-04-24T15:36:10;21.90;57.20
23102;DHT22;11720;51.214;22.574;2023-04-24T15:38:37;21.10;61.20
23102;DHT22;11720;51.214;22.574;2023-04-24T15:43:29;20.90;51.00
23102;DHT22;11720;51.214;22.574;2023-04-24T15:45:57;21.20;46.90
23102;DHT22;11720;51.214;22.574;2023-04-24T15:48:23;21.60;51.90
23102;DHT22;11720;51.214;22.574;2023-04-24T15:50:51;21.30;48.70
23102;DHT22;11720;51.214;22.574;2023-04-24T15:55:51;21.60;46.50
23102;DHT22;11720;51.214;22.574;2023-04-24T16:00:49;21.80;46.90